Time;durP1;ratioP1;P1;durP2;ratioP2;P2;SDS_P1;SDS_P2;PMS_P1;PMS_P2;Temp;Humidity;BMP_temperature;BMP_pressure;BME280_temperature;BME280_humidity;BME280_pressure;Samples;Min_cycle;Max_cycle;Signal;HPM_P1;HPM_P2
2023/01/27 00:01:03;;;;;;;12.63;5.90;;;;;;;8.53;100.00;19566.16;5073652;28;20181;-65
2023/01/27 00:03:30;;;;;;;7.87;5.63;;;;;;;8.51;100.00;19565.44;5073467;28;20223;-64
2023/01/27 00:06:00;;;;;;;11.17;5.83;;;;;;;8.53;100.00;19886.56;5073764;28;20188;-65
2023/01/27 00:08:27;;;;;;;9.80;6.00;;;;;;;8.33;100.00;19558.75;5056105;28;20658;-64
2023/01/27 00:13:39;;;;;;;5.33;4.83;;;;;;;8.44;100.00;20523.94;5071774;28;20214;-63
2023/01/27 00:16:07;;;;;;;8.27;5.13;;;;;;;8.53;100.00;19886.38;5073223;28;20552;-64
2023/01/27 00:18:33;;;;;;;10.67;5.97;;;;;;;8.57;100.00;21170.00;5073273;28;20200;-64
2023/01/27 00:26:28;;;;;;;11.00;6.53;;;;;;;8.39;100.00;18600.22;5072841;28;20222;-63
2023/01/27 00:28:56;;;;;;;14.07;5.63;;;;;;;8.55;100.00;19566.72;5072730;28;20218;-62
2023/01/27 00:34:11;;;;;;;7.43;4.33;;;;;;;8.44;100.00;18281.63;5072937;28;20250;-64
2023/01/27 00:36:40;;;;;;;14.03;6.27;;;;;;;8.31;100.00;16037.09;5072426;28;20239;-64
2023/01/27 00:39:07;;;;;;;4.70;4.30;;;;;;;8.51;100.00;15723.22;5072592;28;20176;-64
2023/01/27 00:41:34;;;;;;;8.43;4.70;;;;;;;8.54;100.00;16044.16;5071642;28;20189;-65
2023/01/27 00:44:04;;;;;;;9.30;4.80;;;;;;;8.47;100.00;14122.69;5072375;28;20188;-63
2023/01/27 00:46:31;;;;;;;8.90;6.50;;;;;;;8.49;100.00;11885.28;5072834;28;20185;-64
2023/01/27 00:48:58;;;;;;;10.47;4.80;;;;;;;8.46;100.00;12204.00;5072989;28;20568;-65
2023/01/27 00:51:25;;;;;;;11.93;6.77;;;;;;;8.50;100.00;11565.94;5072370;28;20283;-64
2023/01/27 00:53:52;;;;;;;7.43;5.93;;;;;;;8.50;100.00;13164.06;5072085;28;20189;-64
2023/01/27 00:56:19;;;;;;;4.77;4.20;;;;;;;8.46;100.00;13163.13;5054292;28;20208;-64
2023/01/27 00:58:46;;;;;;;11.87;6.37;;;;;;;8.46;100.00;13163.00;5072272;28;20189;-65
2023/01/27 01:01:15;;;;;;;10.23;6.00;;;;;;;8.52;100.00;13484.50;5072415;28;20192;-64
2023/01/27 01:03:43;;;;;;;5.80;5.23;;;;;;;8.31;100.00;13478.78;5072293;28;20180;-63
2023/01/27 01:06:12;;;;;;;8.40;5.10;;;;;;;8.41;100.00;12522.50;5072097;28;20524;-64
2023/01/27 01:08:39;;;;;;;9.17;6.57;;;;;;;8.60;100.00;12527.38;5072093;28;20626;-64
2023/01/27 01:11:08;;;;;;;6.60;6.07;;;;;;;8.54;100.00;11886.50;5072600;28;20548;-64
2023/01/27 01:13:35;;;;;;;12.23;6.03;;;;;;;8.58;100.00;12526.72;5072497;28;20640;-64
2023/01/27 01:16:06;;;;;;;16.87;7.07;;;;;;;8.43;100.00;11244.59;5071877;28;20207;-64
2023/01/27 01:18:34;;;;;;;10.10;6.20;;;;;;;8.61;100.00;11248.84;5071726;28;20243;-64
2023/01/27 01:21:02;;;;;;;6.57;5.43;;;;;;;8.51;100.00;10607.56;5072163;28;20181;-64
2023/01/27 01:23:29;;;;;;;11.53;6.67;;;;;;;8.56;100.00;9650.16;5071982;28;20192;-64
2023/01/27 01:25:57;;;;;;;12.23;6.80;;;;;;;8.59;100.00;9331.38;5071724;28;20180;-64
2023/01/27 01:28:25;;;;;;;15.33;7.20;;;;;;;8.43;100.00;8051.16;5071795;28;20185;-64
2023/01/27 01:30:52;;;;;;;5.70;5.20;;;;;;;8.61;100.00;8693.00;5071594;28;20234;-64
2023/01/27 01:33:19;;;;;;;9.67;7.17;;;;;;;8.57;100.00;8373.00;5071749;28;20199;-64
2023/01/27 01:35:47;;;;;;;15.63;6.73;;;;;;;8.46;100.00;7732.50;5071368;28;20239;-63
2023/01/27 01:38:14;;;;;;;9.60;5.67;;;;;;;8.64;100.00;8055.00;5071642;28;20212;-64
2023/01/27 01:40:42;;;;;;;10.53;5.70;;;;;;;8.64;100.00;7735.69;5071564;28;20201;-64
2023/01/27 01:43:13;;;;;;;9.93;6.67;;;;;;;8.68;100.00;8375.06;5071714;28;20185;-64
2023/01/27 01:45:48;;;;;;;9.37;6.73;;;;;;;8.54;100.00;8691.75;5071720;28;20192;-64
2023/01/27 01:48:21;;;;;;;10.40;6.97;;;;;;;8.54;100.00;7733.91;5072186;28;20196;-64
2023/01/27 01:50:55;;;;;;;13.30;6.70;;;;;;;8.53;100.00;7095.34;5071897;28;20626;-64
2023/01/27 01:53:28;;;;;;;6.77;5.57;;;;;;;8.64;100.00;5820.56;5074718;28;20311;-65
2023/01/27 01:55:56;;;;;;;8.20;7.43;;;;;;;8.58;100.00;4543.63;5075728;28;20690;-63
2023/01/27 01:58:26;;;;;;;10.10;6.77;;;;;;;8.59;100.00;3587.06;5076180;28;20193;-64
2023/01/27 02:00:54;;;;;;;6.90;5.10;;;;;;;8.55;100.00;3586.69;5075901;28;20563;-64
2023/01/27 02:03:21;;;;;;;7.60;6.77;;;;;;;8.57;100.00;3905.75;5075371;28;20193;-64
2023/01/27 02:05:50;;;;;;;16.10;7.00;;;;;;;8.56;100.00;4543.44;5075459;28;20189;-65
2023/01/27 02:08:20;;;;;;;14.13;6.70;;;;;;;8.63;100.00;4225.38;5075406;28;20185;-64
2023/01/27 02:10:47;;;;;;;9.80;7.50;;;;;;;8.73;100.00;4226.44;5075425;28;20184;-64
2023/01/27 02:13:14;;;;;;;9.23;5.90;;;;;;;8.66;100.00;3587.88;5075454;28;20188;-64
2023/01/27 02:15:41;;;;;;;7.83;5.70;;;;;;;8.67;100.00;2950.22;5075335;28;20216;-65
2023/01/27 02:18:08;;;;;;;20.40;7.40;;;;;;;8.59;100.00;2949.47;5075555;28;20250;-64
2023/01/27 02:20:43;;;;;;;13.73;7.13;;;;;;;8.59;100.00;1993.25;5075549;28;20180;-64
2023/01/27 02:23:26;;;;;;;6.87;5.70;;;;;;;8.66;100.00;1356.44;5075371;28;20180;-65
2023/01/27 02:25:58;;;;;;;23.97;7.73;;;;;;;8.75;100.00;2313.34;5075274;28;20181;-65
2023/01/27 02:28:27;;;;;;;14.97;7.57;;;;;;;8.74;100.00;3269.75;5075200;28;20185;-65
2023/01/27 02:30:54;;;;;;;12.27;7.43;;;;;;;8.73;100.00;2950.81;5075230;28;20220;-65
2023/01/27 02:33:22;;;;;;;9.00;7.07;;;;;;;8.68;100.00;1675.28;5075008;28;20196;-65
2023/01/27 02:35:58;;;;;;;18.80;7.60;;;;;;;8.63;100.00;400.38;5074566;28;20232;-65
2023/01/27 02:38:29;;;;;;;10.63;7.20;;;;;;;8.43;100.00;-556.03;5074912;28;20196;-64
2023/01/27 02:41:04;;;;;;;12.90;7.57;;;;;;;8.44;100.00;-1510.97;5074779;28;20195;-64
2023/01/27 02:43:31;;;;;;;17.63;7.17;;;;;;;8.03;100.00;-2148.13;5074928;28;20188;-65
2023/01/27 02:45:58;;;;;;;15.17;7.40;;;;;;;8.26;100.00;-3101.97;5075293;28;20185;-64
2023/01/27 02:48:24;;;;;;;8.83;7.30;;;;;;;8.18;100.00;-2783.97;5074529;28;20181;-64
2023/01/27 02:50:51;;;;;;;10.07;7.80;;;;;;;8.14;100.00;-2147.94;5074470;28;20185;-66
2023/01/27 02:53:18;;;;;;;15.80;8.67;;;;;;;8.29;100.00;-556.63;5074472;28;20227;-65
2023/01/27 02:55:45;;;;;;;13.73;7.47;;;;;;;8.24;100.00;1034.94;5074558;28;20225;-64
2023/01/27 02:58:15;;;;;;;8.53;7.03;;;;;;;8.39;100.00;1672.94;5074703;28;20553;-64
2023/01/27 03:00:42;;;;;;;16.23;7.77;;;;;;;8.40;100.00;1354.47;5074513;28;20196;-63
2023/01/27 03:03:09;;;;;;;13.70;6.47;;;;;;;8.30;100.00;2309.38;5073839;28;20197;-64
2023/01/27 03:05:36;;;;;;;8.13;7.17;;;;;;;8.51;100.00;2629.94;5073550;28;20181;-64
2023/01/27 03:08:03;;;;;;;15.83;8.17;;;;;;;8.45;100.00;2310.66;5074474;28;20185;-64
2023/01/27 03:10:30;;;;;;;9.17;8.20;;;;;;;8.48;100.00;1673.69;5074538;28;20196;-64
2023/01/27 03:12:59;;;;;;;11.33;6.47;;;;;;;8.53;100.00;3586.47;5074724;28;20188;-64
2023/01/27 03:18:16;;;;;;;10.03;6.30;;;;;;;8.51;100.00;3586.25;5074337;28;20239;-63
2023/01/27 03:20:45;;;;;;;9.83;7.33;;;;;;;8.48;100.00;2948.34;5074303;28;20640;-64
2023/01/27 03:23:13;;;;;;;16.87;8.13;;;;;;;8.57;100.00;3268.06;5074029;28;20193;-63
2023/01/27 03:25:44;;;;;;;17.93;8.43;;;;;;;8.62;100.00;2949.78;5074326;28;20649;-64
2023/01/27 03:28:11;;;;;;;10.63;6.90;;;;;;;8.59;100.00;2949.44;5074197;28;20188;-64
2023/01/27 03:30:40;;;;;;;6.63;5.77;;;;;;;8.48;100.00;4223.56;5074171;28;20604;-63
2023/01/27 03:33:08;;;;;;;14.77;8.67;;;;;;;8.60;100.00;3268.38;5073799;28;20204;-65
2023/01/27 03:35:37;;;;;;;13.27;8.70;;;;;;;8.60;100.00;1674.63;5073895;28;20603;-63
2023/01/27 03:46:21;;;;;;;10.80;7.73;;;;;;;8.56;100.00;-555.47;5073882;28;20184;-64
2023/01/27 03:48:52;;;;;;;8.50;6.23;;;;;;;8.53;100.00;81.31;5073558;28;20283;-62
2023/01/27 03:51:20;;;;;;;11.13;8.17;;;;;;;8.45;100.00;717.81;5073603;28;20184;-64
2023/01/27 03:53:47;;;;;;;8.90;6.13;;;;;;;8.54;100.00;1036.94;5073763;28;20646;-65
2023/01/27 03:56:15;;;;;;;15.83;7.83;;;;;;;8.63;100.00;400.34;5073455;28;20219;-64
2023/01/27 03:58:43;;;;;;;16.23;8.70;;;;;;;8.57;100.00;81.50;5073276;28;20192;-64
2023/01/27 04:01:14;;;;;;;11.60;8.47;;;;;;;8.75;100.00;82.41;5073405;28;20185;-64
2023/01/27 04:09:17;;;;;;;9.23;6.97;;;;;;;8.71;100.00;-1191.81;5073454;28;20246;-65
2023/01/27 04:11:57;;;;;;;15.03;8.77;;;;;;;8.68;100.00;-2783.69;5073309;28;20285;-64
2023/01/27 04:14:26;;;;;;;8.27;6.20;;;;;;;8.57;100.00;-2783.75;5073443;28;20184;-65
2023/01/27 04:16:54;;;;;;;15.60;8.47;;;;;;;8.64;100.00;-2465.44;5072772;28;20291;-65
2023/01/27 04:19:23;;;;;;;8.27;7.43;;;;;;;8.71;100.00;-1828.66;5055242;28;20196;-64
2023/01/27 04:21:50;;;;;;;17.57;8.03;;;;;;;8.69;100.00;-1828.69;5072868;28;20187;-65
2023/01/27 04:24:21;;;;;;;22.90;10.27;;;;;;;8.69;100.00;-2465.38;5072985;28;20184;-65
2023/01/27 04:26:50;;;;;;;16.10;8.13;;;;;;;8.70;100.00;-2783.69;5072762;28;20189;-64
2023/01/27 04:29:18;;;;;;;9.80;7.10;;;;;;;8.76;100.00;-2465.31;5072935;28;20185;-63
2023/01/27 04:31:45;;;;;;;13.50;9.17;;;;;;;8.69;100.00;-1510.28;5072815;28;20181;-65
2023/01/27 04:34:12;;;;;;;7.50;6.80;;;;;;;8.47;100.00;-1192.56;5072899;28;20199;-64
2023/01/27 04:36:41;;;;;;;8.87;7.33;;;;;;;8.70;100.00;-1828.66;5072478;28;20282;-65
2023/01/27 04:39:09;;;;;;;20.77;7.57;;;;;;;8.82;100.00;-1828.41;5072959;28;20228;-65
2023/01/27 04:41:36;;;;;;;13.30;9.43;;;;;;;8.87;100.00;-1828.31;5072329;28;20188;-64
2023/01/27 04:44:04;;;;;;;16.03;9.10;;;;;;;8.80;100.00;-1828.47;5072737;28;20271;-64
2023/01/27 04:46:31;;;;;;;19.13;8.67;;;;;;;8.91;100.00;-2146.72;5072660;28;20620;-65
2023/01/27 04:48:58;;;;;;;12.70;8.63;;;;;;;8.88;100.00;-1828.31;5072707;28;20192;-64
2023/01/27 04:51:25;;;;;;;11.07;7.13;;;;;;;8.81;100.00;-1828.44;5072431;28;20188;-64
2023/01/27 04:53:53;;;;;;;14.43;9.07;;;;;;;8.81;100.00;-3738.50;5072155;28;20200;-65
2023/01/27 04:56:31;;;;;;;12.30;9.00;;;;;;;8.88;100.00;-4056.84;5072322;28;20583;-65
2023/01/27 04:58:59;;;;;;;17.93;9.07;;;;;;;8.92;100.00;-4375.16;5072178;28;20200;-65
2023/01/27 05:01:27;;;;;;;21.13;10.40;;;;;;;8.94;100.00;-4693.44;5072491;28;20631;-65
2023/01/27 05:03:54;;;;;;;18.23;8.47;;;;;;;8.90;100.00;-4693.34;5072316;28;20185;-64
2023/01/27 05:06:21;;;;;;;18.67;9.07;;;;;;;8.83;100.00;-5965.59;5072010;28;20276;-64
2023/01/27 05:08:48;;;;;;;17.80;9.57;;;;;;;8.79;100.00;-6283.44;5072292;28;20276;-65
2023/01/27 05:11:17;;;;;;;17.53;7.40;;;;;;;8.92;100.00;-5011.59;5072464;28;20631;-64
2023/01/27 05:13:45;;;;;;;18.70;7.97;;;;;;;8.85;100.00;-6283.72;5072133;28;20181;-62
2023/01/27 05:16:15;;;;;;;16.37;8.80;;;;;;;8.90;100.00;-6920.00;5072033;28;20216;-64
2023/01/27 05:18:43;;;;;;;11.83;8.10;;;;;;;8.93;100.00;-5966.06;5071914;28;20185;-65
2023/01/27 05:21:13;;;;;;;16.00;10.63;;;;;;;8.98;100.00;-5966.28;5072086;28;20196;-64
2023/01/27 05:23:40;;;;;;;14.63;8.63;;;;;;;9.02;100.00;-4375.38;5072168;28;20555;-63
2023/01/27 05:26:10;;;;;;;18.50;10.00;;;;;;;9.00;100.00;-4375.31;5071856;28;20562;-64
2023/01/27 05:28:40;;;;;;;15.67;9.63;;;;;;;8.78;100.00;-5011.16;5071605;28;20578;-64
2023/01/27 05:31:10;;;;;;;18.13;10.60;;;;;;;8.99;100.00;-5648.19;5072134;28;20555;-64
2023/01/27 05:33:38;;;;;;;14.30;9.30;;;;;;;9.05;100.00;-5966.63;5072216;28;20193;-65
2023/01/27 05:36:07;;;;;;;26.03;10.57;;;;;;;9.03;100.00;-6920.81;5071443;28;20247;-65
2023/01/27 05:38:34;;;;;;;16.47;9.60;;;;;;;9.09;100.00;-7239.25;5071594;28;20215;-65
2023/01/27 05:41:03;;;;;;;19.33;10.70;;;;;;;9.08;100.00;-7239.22;5072007;28;20196;-65
2023/01/27 05:43:31;;;;;;;18.20;9.83;;;;;;;9.01;100.00;-7238.72;5071624;28;20185;-65
2023/01/27 05:46:06;;;;;;;20.03;10.27;;;;;;;8.85;100.00;-7873.44;5072222;28;20185;-65
2023/01/27 05:48:35;;;;;;;18.63;10.00;;;;;;;8.98;100.00;-7556.53;5071649;28;20185;-64
2023/01/27 05:51:03;;;;;;;17.90;9.50;;;;;;;9.00;100.00;-6920.66;5071622;28;20192;-63
2023/01/27 05:53:30;;;;;;;14.03;10.27;;;;;;;9.00;100.00;-6920.63;5071749;28;20627;-65
2023/01/27 05:55:57;;;;;;;15.27;10.67;;;;;;;8.89;100.00;-6601.97;5071506;28;20205;-64
2023/01/27 05:58:24;;;;;;;19.87;11.10;;;;;;;8.85;100.00;-6919.69;5071830;28;20500;-65
2023/01/27 06:00:52;;;;;;;26.60;8.77;;;;;;;8.77;100.00;-6601.28;5071573;28;20559;-64
2023/01/27 06:03:20;;;;;;;23.23;10.10;;;;;;;8.73;100.00;-6601.06;5071233;28;20186;-65
2023/01/27 06:05:55;;;;;;;22.90;10.67;;;;;;;8.73;100.00;-5647.13;5071869;28;20647;-64
2023/01/27 06:08:23;;;;;;;15.20;10.40;;;;;;;8.75;100.00;-5011.09;5071635;28;20199;-63
2023/01/27 06:10:50;;;;;;;11.33;7.67;;;;;;;8.60;100.00;-4692.59;5071286;28;20185;-63
2023/01/27 06:13:18;;;;;;;22.97;10.10;;;;;;;8.82;100.00;-4056.75;5071194;28;20181;-64
2023/01/27 06:15:46;;;;;;;18.47;9.10;;;;;;;8.77;100.00;-3738.47;5071495;28;20660;-61
2023/01/27 06:18:13;;;;;;;18.97;10.93;;;;;;;9.03;100.00;-3420.34;5071729;28;20636;-63
2023/01/27 06:20:42;;;;;;;16.40;10.07;;;;;;;9.09;100.00;-2464.94;5071639;28;20663;-63
2023/01/27 06:23:11;;;;;;;28.40;12.77;;;;;;;9.09;100.00;-1827.84;5071183;28;20354;-63
2023/01/27 06:25:39;;;;;;;14.37;9.37;;;;;;;9.12;100.00;-2146.34;5071049;28;20200;-62
2023/01/27 06:28:06;;;;;;;17.47;8.90;;;;;;;9.22;100.00;-2464.78;5071539;28;20181;-62
2023/01/27 06:30:36;;;;;;;24.03;11.70;;;;;;;9.28;100.00;-3420.44;5071240;28;20188;-64
2023/01/27 06:33:03;;;;;;;24.50;10.40;;;;;;;9.26;100.00;-3738.94;5071305;28;20200;-62
2023/01/27 06:35:31;;;;;;;25.63;11.80;;;;;;;9.26;100.00;-4694.25;5071062;28;20239;-63
2023/01/27 06:38:00;;;;;;;24.30;10.23;;;;;;;9.28;100.00;-5012.66;5072297;28;20205;-64
2023/01/27 06:40:28;;;;;;;23.77;12.23;;;;;;;9.36;100.00;-5331.31;5075208;28;20188;-63
2023/01/27 06:42:56;;;;;;;18.80;10.67;;;;;;;9.36;100.00;-5012.91;5075868;28;20185;-63
2023/01/27 06:45:23;;;;;;;19.13;10.60;;;;;;;9.41;100.00;-5013.06;5075341;28;20195;-63
2023/01/27 06:47:55;;;;;;;28.07;12.23;;;;;;;9.49;100.00;-5331.78;5074922;28;20181;-63
2023/01/27 06:50:23;;;;;;;25.77;11.50;;;;;;;9.54;100.00;-5650.41;5074946;28;20250;-63
2023/01/27 06:52:49;;;;;;;20.10;11.27;;;;;;;9.46;100.00;-5968.47;5074399;28;20181;-64
2023/01/27 06:55:19;;;;;;;33.57;13.60;;;;;;;9.32;100.00;-6922.56;5075147;28;20575;-63
2023/01/27 06:57:47;;;;;;;18.20;10.20;;;;;;;9.48;100.00;-7241.84;5075097;28;20275;-63
2023/01/27 07:00:15;;;;;;;14.73;9.70;;;;;;;9.37;100.00;-7241.09;5074665;28;20540;-63
2023/01/27 07:02:42;;;;;;;24.53;12.57;;;;;;;9.17;100.00;-7557.88;5070571;28;20198;-63
2023/01/27 07:05:09;;;;;;;21.70;9.73;;;;;;;9.45;100.00;-7878.06;5074090;28;20196;-62
2023/01/27 07:07:36;;;;;;;28.10;12.03;;;;;;;9.53;100.00;-7560.41;5074071;28;20188;-65
2023/01/27 07:10:04;;;;;;;14.70;9.87;;;;;;;9.54;100.00;-7242.22;5074185;28;20288;-63
2023/01/27 07:12:36;;;;;;;23.67;11.00;;;;;;;9.57;100.00;-6924.09;5074430;28;20189;-63
2023/01/27 07:15:05;;;;;;;27.33;13.17;;;;;;;9.59;100.00;-6924.22;5073956;28;20255;-64
2023/01/27 07:17:35;;;;;;;24.83;11.90;;;;;;;9.47;100.00;-6605.19;5074364;28;20209;-64
2023/01/27 07:20:02;;;;;;;16.70;11.00;;;;;;;9.57;100.00;-6605.72;5074208;28;20194;-63
2023/01/27 07:22:29;;;;;;;20.73;11.97;;;;;;;9.54;100.00;-6923.94;5073979;28;20207;-63
2023/01/27 07:24:56;;;;;;;20.43;8.97;;;;;;;9.56;100.00;-5968.94;5074186;28;20291;-63
2023/01/27 07:27:23;;;;;;;21.03;10.07;;;;;;;9.73;100.00;-5332.59;5074387;28;20185;-64
2023/01/27 07:29:51;;;;;;;19.20;11.87;;;;;;;9.80;100.00;-6288.50;5074369;28;20272;-64
2023/01/27 07:32:18;;;;;;;21.67;11.40;;;;;;;9.83;100.00;-7244.13;5074275;28;20247;-64
2023/01/27 07:34:48;;;;;;;20.97;11.97;;;;;;;9.90;100.00;-8518.19;5074061;28;20569;-64
2023/01/27 07:37:15;;;;;;;26.23;11.23;;;;;;;9.86;100.00;-10745.34;5073893;28;20209;-64
2023/01/27 07:39:42;;;;;;;19.33;8.80;;;;;;;9.81;100.00;-11698.81;5073843;28;20211;-64
2023/01/27 07:42:09;;;;;;;24.97;12.23;;;;;;;9.67;100.00;-11696.94;5072348;28;20632;-64
2023/01/27 07:44:36;;;;;;;24.40;11.07;;;;;;;9.85;100.00;-11063.34;5067943;28;20213;-62
2023/01/27 07:47:05;;;;;;;23.07;11.53;;;;;;;9.82;100.00;-11381.00;5055942;28;20193;-64
2023/01/27 07:49:32;;;;;;;15.60;9.63;;;;;;;9.92;100.00;-11064.19;5059269;28;20201;-64
2023/01/27 07:51:59;;;;;;;21.30;10.33;;;;;;;9.87;100.00;-11381.63;5073834;28;20204;-63
2023/01/27 07:54:26;;;;;;;15.93;9.47;;;;;;;9.88;100.00;-11063.75;5073303;28;20196;-63
2023/01/27 07:56:53;;;;;;;23.60;11.73;;;;;;;9.90;100.00;-10745.81;5058989;28;20260;-64
2023/01/27 07:59:20;;;;;;;30.13;12.17;;;;;;;9.73;100.00;-11061.75;5053312;28;20200;-63
2023/01/27 08:01:47;;;;;;;21.90;11.23;;;;;;;9.84;100.00;-10745.16;5054408;28;20186;-63
2023/01/27 08:04:16;;;;;;;25.23;13.00;;;;;;;9.85;100.00;-10108.94;5053690;28;20186;-62
2023/01/27 08:06:42;;;;;;;18.93;11.63;;;;;;;9.87;100.00;-9790.97;5053314;28;20197;-63
2023/01/27 08:09:09;;;;;;;19.40;10.77;;;;;;;9.72;100.00;-9153.09;5058037;28;20207;-63
2023/01/27 08:11:36;;;;;;;15.27;11.67;;;;;;;10.00;100.00;-8519.03;5070952;28;20203;-61
2023/01/27 08:14:03;;;;;;;24.20;12.63;;;;;;;10.19;100.00;-7883.66;5072743;28;20204;-61
2023/01/27 08:16:30;;;;;;;29.73;12.93;;;;;;;10.17;100.00;-8839.00;5070769;28;20204;-63
2023/01/27 08:18:57;;;;;;;24.37;11.20;;;;;;;10.23;100.00;-9794.84;5071493;28;20218;-63
2023/01/27 08:21:31;;;;;;;18.90;12.00;;;;;;;10.18;100.00;-10430.94;5072805;28;20196;-61
2023/01/27 08:23:58;;;;;;;18.50;9.77;;;;;;;10.41;100.00;-11707.13;5063528;28;20232;-61
2023/01/27 08:26:25;;;;;;;17.33;12.10;;;;;;;10.37;100.00;-12343.06;5053147;28;20251;-62
2023/01/27 08:28:52;;;;;;;22.27;11.20;;;;;;;10.24;100.00;-12659.28;5060327;28;20215;-63
2023/01/27 08:31:19;;;;;;;17.70;10.87;;;;;;;10.19;100.00;-12658.41;5072506;28;20203;-63
2023/01/27 08:33:51;;;;;;;20.40;10.20;;;;;;;9.98;100.00;-12019.22;5072645;28;20208;-63
2023/01/27 08:36:19;;;;;;;16.40;10.83;;;;;;;10.07;100.00;-11066.13;5072349;28;20689;-63
2023/01/27 08:38:51;;;;;;;14.37;8.87;;;;;;;9.98;100.00;-10110.47;5072878;28;20208;-65
2023/01/27 08:41:20;;;;;;;17.23;9.80;;;;;;;10.00;100.00;-8837.47;5063607;28;20228;-64
2023/01/27 08:43:48;;;;;;;12.77;9.30;;;;;;;10.10;100.00;-8201.50;5052886;28;20625;-63
2023/01/27 08:46:15;;;;;;;21.40;10.60;;;;;;;10.09;100.00;-8838.25;5052485;28;20190;-63
2023/01/27 08:48:42;;;;;;;19.83;11.43;;;;;;;10.12;100.00;-8838.47;5052568;28;20193;-64
2023/01/27 08:51:11;;;;;;;25.03;9.17;;;;;;;10.14;100.00;-8201.78;5052381;28;20190;-65
2023/01/27 08:53:38;;;;;;;21.37;10.73;;;;;;;10.13;100.00;-7883.19;5051936;28;20181;-63
2023/01/27 08:56:08;;;;;;;24.83;12.23;;;;;;;10.14;100.00;-8201.78;5052464;28;20185;-63
2023/01/27 08:58:35;;;;;;;17.10;11.07;;;;;;;10.12;100.00;-8520.09;5051905;28;20209;-62
2023/01/27 09:01:03;;;;;;;29.87;11.47;;;;;;;10.19;100.00;-8520.66;5052010;28;20239;-63
2023/01/27 09:03:31;;;;;;;23.97;10.90;;;;;;;10.17;100.00;-8202.03;5051506;28;20201;-63
2023/01/27 09:05:58;;;;;;;14.07;8.53;;;;;;;10.15;100.00;-7883.28;5051826;28;20182;-63
2023/01/27 09:08:26;;;;;;;24.90;11.33;;;;;;;10.16;100.00;-8201.94;5052521;28;20621;-62
2023/01/27 09:10:53;;;;;;;19.27;10.37;;;;;;;10.19;100.00;-8202.19;5052138;28;20189;-63
2023/01/27 09:13:22;;;;;;;17.33;10.37;;;;;;;10.17;100.00;-8520.47;5052139;28;20205;-64
2023/01/27 09:15:51;;;;;;;24.57;10.67;;;;;;;10.21;100.00;-8520.88;5051994;28;20624;-63
2023/01/27 09:18:18;;;;;;;24.17;12.23;;;;;;;10.26;100.00;-8521.25;5052137;28;20210;-63
2023/01/27 09:20:45;;;;;;;22.00;11.93;;;;;;;10.18;100.00;-8202.06;5052140;28;20221;-62
2023/01/27 09:23:12;;;;;;;20.57;10.37;;;;;;;10.33;100.00;-8521.91;5051690;28;20682;-62
2023/01/27 09:25:40;;;;;;;16.30;10.87;;;;;;;10.29;100.00;-8203.00;5056592;28;20548;-63
2023/01/27 09:28:15;;;;;;;21.13;12.07;;;;;;;10.27;100.00;-7565.59;5067602;28;20284;-63
2023/01/27 09:30:45;;;;;;;20.80;11.27;;;;;;;10.35;100.00;-7884.81;5070087;28;20258;-63
2023/01/27 09:33:12;;;;;;;19.60;11.93;;;;;;;10.42;100.00;-8522.69;5071457;28;20208;-64
2023/01/27 09:35:44;;;;;;;21.63;11.80;;;;;;;10.40;100.00;-9159.63;5066285;28;20232;-63
2023/01/27 09:38:14;;;;;;;22.50;10.47;;;;;;;10.49;100.00;-9160.53;5033467;28;20592;-64
2023/01/27 09:40:57;;;;;;;19.60;10.97;;;;;;;10.44;100.00;-9797.13;5051943;28;20193;-63
2023/01/27 09:43:44;;;;;;;16.90;10.30;;;;;;;10.42;100.00;-9796.91;5052092;28;20192;-63
2023/01/27 09:46:40;;;;;;;18.93;10.83;;;;;;;9.99;100.00;-10110.53;5068659;28;20288;-63
2023/01/27 09:49:22;;;;;;;25.07;12.27;;;;;;;10.33;100.00;-10114.34;5071532;28;20267;-64
2023/01/27 09:52:02;;;;;;;23.37;12.10;;;;;;;10.34;100.00;-10114.47;5053961;28;20311;-63
2023/01/27 09:54:42;;;;;;;24.33;11.87;;;;;;;10.32;100.00;-9795.81;5067631;28;20212;-63
2023/01/27 09:57:17;;;;;;;16.23;11.27;;;;;;;10.34;100.00;-9477.56;5051538;28;20185;-63
2023/01/27 09:59:57;;;;;;;28.17;12.53;;;;;;;10.37;100.00;-9796.31;5051377;28;21021;-64
2023/01/27 10:02:44;;;;;;;25.37;11.43;;;;;;;10.12;100.00;-9793.63;5032089;28;20190;-63
2023/01/27 10:05:35;;;;;;;21.47;13.47;;;;;;;10.46;100.00;-10115.81;5051578;28;20223;-63
2023/01/27 10:08:28;;;;;;;32.47;13.43;;;;;;;10.45;100.00;-10115.66;5051546;28;20629;-64
2023/01/27 10:11:15;;;;;;;17.57;10.47;;;;;;;10.26;100.00;-10113.56;5051239;28;20186;-63
2023/01/27 10:13:55;;;;;;;29.60;15.07;;;;;;;10.05;100.00;-10747.66;5053086;28;20185;-63
2023/01/27 10:16:46;;;;;;;32.90;14.50;;;;;;;10.03;100.00;-10747.50;5055769;28;20633;-63
2023/01/27 10:19:27;;;;;;;27.63;14.30;;;;;;;9.99;100.00;-10110.59;5055155;28;20205;-63
2023/01/27 10:22:05;;;;;;;28.10;13.30;;;;;;;9.92;100.00;-9791.53;5059655;28;20193;-64
2023/01/27 10:24:45;;;;;;;29.07;14.00;;;;;;;9.78;100.00;-9790.06;5074880;28;20571;-64
2023/01/27 10:27:17;;;;;;;24.63;13.10;;;;;;;9.93;100.00;-9473.38;5074422;28;20205;-63
2023/01/27 10:29:46;;;;;;;29.87;13.90;;;;;;;9.86;100.00;-9472.66;5074958;28;20660;-63
2023/01/27 10:32:25;;;;;;;28.60;14.73;;;;;;;9.87;100.00;-9154.56;5073895;28;20208;-64
2023/01/27 10:35:04;;;;;;;23.93;13.30;;;;;;;9.96;100.00;-9155.38;5075098;28;20255;-63
2023/01/27 10:37:40;;;;;;;23.03;13.27;;;;;;;9.97;100.00;-8837.16;5074864;28;20205;-64
2023/01/27 10:40:16;;;;;;;21.20;11.47;;;;;;;9.98;100.00;-8200.47;5074889;28;20185;-63
2023/01/27 10:42:51;;;;;;;21.40;12.33;;;;;;;10.12;100.00;-7245.97;5067929;28;20659;-63
2023/01/27 10:45:27;;;;;;;18.90;11.63;;;;;;;10.25;100.00;-7565.47;5073961;28;20196;-64
2023/01/27 10:48:21;;;;;;;23.37;13.07;;;;;;;10.35;100.00;-7566.22;5074372;28;20275;-63
2023/01/27 10:50:55;;;;;;;28.50;12.80;;;;;;;10.49;100.00;-5335.25;5074547;28;20203;-63
2023/01/27 10:53:29;;;;;;;21.37;13.90;;;;;;;10.72;100.00;-6293.09;5074803;28;20185;-63
2023/01/27 10:56:03;;;;;;;22.83;13.50;;;;;;;10.97;100.00;-6613.47;5074338;28;20184;-64
2023/01/27 10:58:42;;;;;;;24.77;13.77;;;;;;;11.03;100.00;-8208.94;5075052;28;20255;-64
2023/01/27 11:01:13;;;;;;;29.53;14.40;;;;;;;11.05;100.00;-12671.56;5074761;28;20687;-63
2023/01/27 11:03:44;;;;;;;21.00;14.27;;;;;;;11.26;100.00;-15222.91;5073872;28;20184;-62
2023/01/27 11:06:16;;;;;;;31.93;13.97;;;;;;;11.10;100.00;-15537.97;5073823;28;20192;-63
2023/01/27 11:08:47;;;;;;;22.50;13.40;;;;;;;10.97;100.00;-17126.13;5073970;28;20687;-64
2023/01/27 11:14:11;;;;;;;27.43;14.60;;;;;;;10.99;100.00;-18080.75;5054077;28;20560;-63
2023/01/27 11:16:42;;;;;;;27.13;13.57;;;;;;;10.84;100.00;-17759.22;5053762;28;20211;-63
2023/01/27 11:19:18;;;;;;;26.47;13.97;;;;;;;10.93;100.00;-17443.34;5053975;28;20212;-64
2023/01/27 11:21:50;;;;;;;25.20;14.23;;;;;;;10.91;100.00;-17442.91;5054009;28;20189;-62
2023/01/27 11:24:23;;;;;;;31.27;14.63;;;;;;;10.89;100.00;-17124.31;5053837;28;20637;-63
2023/01/27 11:27:00;;;;;;;27.50;13.17;;;;;;;10.79;100.00;-16804.09;5053209;28;20197;-63
2023/01/27 11:29:33;;;;;;;26.67;13.40;;;;;;;10.77;100.00;-16485.66;5053562;28;20186;-62
2023/01/27 11:32:08;;;;;;;20.87;9.17;;;;;;;10.68;100.00;-16801.66;5054015;28;20637;-64
2023/01/27 11:34:41;;;;;;;17.23;10.07;;;;;;;10.70;100.00;-17120.13;5053927;28;20200;-64
2023/01/27 11:37:19;;;;;;;29.33;13.50;;;;;;;10.83;100.00;-16804.97;5053242;28;20181;-63
2023/01/27 11:39:46;;;;;;;18.47;12.53;;;;;;;10.70;100.00;-16166.25;5053602;28;20300;-63
2023/01/27 11:42:14;;;;;;;18.97;11.77;;;;;;;10.92;100.00;-15852.75;5053522;28;20207;-63
2023/01/27 11:44:45;;;;;;;30.33;14.97;;;;;;;11.05;100.00;-16491.59;5069015;28;20601;-63
2023/01/27 11:47:21;;;;;;;24.17;13.70;;;;;;;11.14;100.00;-16811.81;5053339;28;20181;-64
2023/01/27 11:49:50;;;;;;;29.97;12.70;;;;;;;11.07;100.00;-17128.38;5053223;28;20188;-63
2023/01/27 11:52:21;;;;;;;28.40;12.77;;;;;;;11.17;100.00;-16175.94;5053185;28;20186;-63
2023/01/27 11:54:52;;;;;;;22.57;12.77;;;;;;;11.17;100.00;-14902.81;5053065;28;20193;-64
2023/01/27 11:57:21;;;;;;;22.43;12.93;;;;;;;11.19;100.00;-13947.88;5053429;28;20190;-63
2023/01/27 11:59:52;;;;;;;23.03;14.10;;;;;;;11.16;100.00;-16175.84;5053083;28;20220;-62
2023/01/27 12:02:28;;;;;;;18.63;11.63;;;;;;;11.17;100.00;-15221.16;5052968;28;20185;-63